バクー の空港の天気 - METARとTAF

ヘイダル・アリエフ国際空港(バクー) ( UBBB / BAK ) - アゼルバイジャン バクー
飛行場実況気象(Metar)
観測時間02/26 07:30 AZT (02/26 03:30 UTC)
風向・風速北北西 2m/s
視程10km以上
天気現象
全天を覆う雲 雲底高度 550m
気温7℃
湿度87%
気圧1008hPa
METARUBBB 260330Z 34004KT 9999 OVC018 07/05 Q1008 R88/D NOSIG
過去の天気等 Google飛行場航空写真 Wunderground天気予報

過去48時間のMETAR

飛行場予報(TAF)
発表時間: 2/26 03:04 AZT (2/25 23:04 UTC)
予報対象時間: 26日4時 AZT ~ 27日4時 AZT
風向・風速北北西 4m/s
視程10km以上
全天の8割程度の雲 雲底高度 210m
全天の8割程度の雲 雲底高度 760m
26日4時 AZT ~ 26日8時 AZT に一時的に
風向・風速不定 2m/s
視程3,000m
天気現象もや
全天の8割程度の雲 雲底高度 150m
全天を覆う雲 雲底高度 370m
26日14時 AZT ~ 26日16時 AZT に徐々に
風向・風速北北西 7m/s 瞬間風速 12m/s
TAF UBBB 252304Z 2600/2624 33008KT 9999 BKN007 BKN025 TX09/2609Z TN05/2602Z
TEMPO 2600/2604 VRB04KT 3000 BR BKN005 OVC012
BECMG 2610/2612 34014G24KT